sensor_id;sensor_type;location;lat;lon;timestamp;pressure;altitude;pressure_sealevel;temperature;humidity
49943;BME280;36011;53.362;58.948;2023-02-21T00:00:03;95777.91;;;-11.34;64.04
49943;BME280;36011;53.362;58.948;2023-02-21T00:03:26;95752.53;;;-11.31;64.37
49943;BME280;36011;53.362;58.948;2023-02-21T00:06:47;95753.34;;;-11.46;64.46
49943;BME280;36011;53.362;58.948;2023-02-21T00:10:13;95738.13;;;-11.37;65.33
49943;BME280;36011;53.362;58.948;2023-02-21T00:13:37;95727.13;;;-11.28;65.65
49943;BME280;36011;53.362;58.948;2023-02-21T00:17:00;95745.75;;;-11.15;65.06
49943;BME280;36011;53.362;58.948;2023-02-21T00:20:23;95739.84;;;-11.08;64.72
49943;BME280;36011;53.362;58.948;2023-02-21T00:23:46;95716.16;;;-11.05;64.36
49943;BME280;36011;53.362;58.948;2023-02-21T00:27:09;95724.63;;;-11.00;64.54
49943;BME280;36011;53.362;58.948;2023-02-21T00:30:34;95716.13;;;-11.04;65.21
49943;BME280;36011;53.362;58.948;2023-02-21T00:33:57;95722.06;;;-11.10;65.20
49943;BME280;36011;53.362;58.948;2023-02-21T00:37:21;95717.84;;;-11.09;65.10
49943;BME280;36011;53.362;58.948;2023-02-21T00:40:44;95729.69;;;-11.02;65.10
49943;BME280;36011;53.362;58.948;2023-02-21T00:44:09;95725.47;;;-11.00;64.75
49943;BME280;36011;53.362;58.948;2023-02-21T00:47:32;95726.31;;;-10.99;64.77
49943;BME280;36011;53.362;58.948;2023-02-21T00:50:55;95723.78;;;-10.99;64.42
49943;BME280;36011;53.362;58.948;2023-02-21T00:54:17;95728.00;;;-10.97;64.56
49943;BME280;36011;53.362;58.948;2023-02-21T00:57:39;95732.25;;;-10.90;64.60
49943;BME280;36011;53.362;58.948;2023-02-21T01:01:02;95728.00;;;-10.91;64.28
49943;BME280;36011;53.362;58.948;2023-02-21T01:04:29;95725.44;;;-10.98;63.91
49943;BME280;36011;53.362;58.948;2023-02-21T01:07:52;95717.84;;;-10.97;64.08
49943;BME280;36011;53.362;58.948;2023-02-21T01:11:17;95722.09;;;-11.00;63.81
49943;BME280;36011;53.362;58.948;2023-02-21T01:14:41;95719.53;;;-11.05;64.16
49943;BME280;36011;53.362;58.948;2023-02-21T01:18:04;95725.44;;;-10.98;64.18
49943;BME280;36011;53.362;58.948;2023-02-21T01:21:27;95713.63;;;-10.95;64.34
49943;BME280;36011;53.362;58.948;2023-02-21T01:24:51;95719.56;;;-11.03;64.40
49943;BME280;36011;53.362;58.948;2023-02-21T01:28:16;95720.41;;;-11.09;64.57
49943;BME280;36011;53.362;58.948;2023-02-21T01:31:38;95730.53;;;-11.14;64.58
49943;BME280;36011;53.362;58.948;2023-02-21T01:35:02;95726.31;;;-11.13;65.09
49943;BME280;36011;53.362;58.948;2023-02-21T01:38:24;95716.13;;;-11.10;64.73
49943;BME280;36011;53.362;58.948;2023-02-21T01:41:47;95717.00;;;-11.03;64.87
49943;BME280;36011;53.362;58.948;2023-02-21T01:48:58;95706.00;;;-10.89;64.86
49943;BME280;36011;53.362;58.948;2023-02-21T01:52:22;95700.06;;;-10.88;64.58
49943;BME280;36011;53.362;58.948;2023-02-21T01:55:46;95702.59;;;-10.85;64.50
49943;BME280;36011;53.362;58.948;2023-02-21T01:59:10;95699.22;;;-10.77;64.53
49943;BME280;36011;53.362;58.948;2023-02-21T02:06:22;95688.19;;;-10.79;64.41
49943;BME280;36011;53.362;58.948;2023-02-21T02:09:45;95668.72;;;-10.77;64.67
49943;BME280;36011;53.362;58.948;2023-02-21T02:16:31;95672.09;;;-10.72;64.74
49943;BME280;36011;53.362;58.948;2023-02-21T02:34:04;95662.72;;;-10.59;64.44
49943;BME280;36011;53.362;58.948;2023-02-21T02:40:42;95654.25;;;-10.54;64.51
49943;BME280;36011;53.362;58.948;2023-02-21T02:44:01;95637.31;;;-10.55;64.51
49943;BME280;36011;53.362;58.948;2023-02-21T02:47:16;95636.44;;;-10.54;64.38
49943;BME280;36011;53.362;58.948;2023-02-21T02:50:24;95628.81;;;-10.51;64.71
49943;BME280;36011;53.362;58.948;2023-02-21T02:53:29;95625.44;;;-10.50;64.31
49943;BME280;36011;53.362;58.948;2023-02-21T02:56:32;95626.22;;;-10.42;64.80
49943;BME280;36011;53.362;58.948;2023-02-21T02:59:41;95618.59;;;-10.32;64.84
49943;BME280;36011;53.362;58.948;2023-02-21T03:06:18;95617.66;;;-10.25;64.74
49943;BME280;36011;53.362;58.948;2023-02-21T03:09:56;95606.63;;;-10.23;64.76
49943;BME280;36011;53.362;58.948;2023-02-21T03:13:26;95612.56;;;-10.16;64.78
49943;BME280;36011;53.362;58.948;2023-02-21T03:16:46;95615.91;;;-10.11;64.50
49943;BME280;36011;53.362;58.948;2023-02-21T03:19:52;95617.59;;;-10.10;64.56
49943;BME280;36011;53.362;58.948;2023-02-21T03:23:00;95629.47;;;-10.09;64.53
49943;BME280;36011;53.362;58.948;2023-02-21T03:26:06;95618.44;;;-10.06;64.25
49943;BME280;36011;53.362;58.948;2023-02-21T03:29:14;95615.06;;;-10.07;64.39
49943;BME280;36011;53.362;58.948;2023-02-21T03:32:26;95618.41;;;-10.03;64.38
49943;BME280;36011;53.362;58.948;2023-02-21T03:35:32;95612.44;;;-9.95;64.56
49943;BME280;36011;53.362;58.948;2023-02-21T03:38:36;95597.97;;;-9.85;64.76
49943;BME280;36011;53.362;58.948;2023-02-21T03:41:39;95603.81;;;-9.72;65.01
49943;BME280;36011;53.362;58.948;2023-02-21T03:44:44;95608.84;;;-9.66;64.41
49943;BME280;36011;53.362;58.948;2023-02-21T03:47:47;95603.75;;;-9.61;64.42
49943;BME280;36011;53.362;58.948;2023-02-21T03:50:53;95569.81;;;-9.62;64.10
49943;BME280;36011;53.362;58.948;2023-02-21T03:53:57;95562.97;;;-9.60;64.18
49943;BME280;36011;53.362;58.948;2023-02-21T03:57:00;95572.28;;;-9.54;63.91
49943;BME280;36011;53.362;58.948;2023-02-21T04:00:05;95576.50;;;-9.52;64.10
49943;BME280;36011;53.362;58.948;2023-02-21T04:03:11;95562.88;;;-9.44;64.36
49943;BME280;36011;53.362;58.948;2023-02-21T04:06:16;95555.16;;;-9.34;64.18
49943;BME280;36011;53.362;58.948;2023-02-21T04:09:21;95559.34;;;-9.28;64.07
49943;BME280;36011;53.362;58.948;2023-02-21T04:12:26;95549.06;;;-9.19;64.07
49943;BME280;36011;53.362;58.948;2023-02-21T04:15:31;95555.72;;;-9.09;64.07
49943;BME280;36011;53.362;58.948;2023-02-21T04:18:33;95533.53;;;-8.97;63.59
49943;BME280;36011;53.362;58.948;2023-02-21T04:21:39;95536.91;;;-8.95;63.65
49943;BME280;36011;53.362;58.948;2023-02-21T04:24:46;95537.75;;;-8.93;63.47
49943;BME280;36011;53.362;58.948;2023-02-21T04:27:52;95529.16;;;-8.86;63.76
49943;BME280;36011;53.362;58.948;2023-02-21T04:31:02;95523.94;;;-8.74;63.75
49943;BME280;36011;53.362;58.948;2023-02-21T04:34:04;95502.53;;;-8.61;63.55
49943;BME280;36011;53.362;58.948;2023-02-21T04:37:09;95480.38;;;-8.55;63.70
49943;BME280;36011;53.362;58.948;2023-02-21T04:40:12;95462.38;;;-8.45;63.01
49943;BME280;36011;53.362;58.948;2023-02-21T04:43:17;95474.94;;;-8.34;63.17
49943;BME280;36011;53.362;58.948;2023-02-21T04:46:23;95471.38;;;-8.24;63.04
49943;BME280;36011;53.362;58.948;2023-02-21T04:49:32;95467.00;;;-8.16;63.19
49943;BME280;36011;53.362;58.948;2023-02-21T04:52:40;95460.09;;;-8.07;62.95
49943;BME280;36011;53.362;58.948;2023-02-21T04:55:45;95465.03;;;-7.97;63.12
49943;BME280;36011;53.362;58.948;2023-02-21T04:58:51;95460.66;;;-7.90;62.69
49943;BME280;36011;53.362;58.948;2023-02-21T05:01:56;95465.66;;;-7.81;62.86
49943;BME280;36011;53.362;58.948;2023-02-21T05:05:01;95460.41;;;-7.73;62.80
49943;BME280;36011;53.362;58.948;2023-02-21T05:08:07;95460.28;;;-7.65;62.84
49943;BME280;36011;53.362;58.948;2023-02-21T05:11:15;95455.00;;;-7.56;62.96
49943;BME280;36011;53.362;58.948;2023-02-21T05:14:20;95441.22;;;-7.48;62.61
49943;BME280;36011;53.362;58.948;2023-02-21T05:17:27;95427.50;;;-7.40;63.02
49943;BME280;36011;53.362;58.948;2023-02-21T05:20:35;95427.44;;;-7.36;62.75
49943;BME280;36011;53.362;58.948;2023-02-21T05:23:40;95423.09;;;-7.32;62.61
49943;BME280;36011;53.362;58.948;2023-02-21T05:26:45;95417.91;;;-7.29;62.44
49943;BME280;36011;53.362;58.948;2023-02-21T05:29:49;95403.31;;;-7.23;61.70
49943;BME280;36011;53.362;58.948;2023-02-21T05:32:54;95387.34;;;-7.34;62.48
49943;BME280;36011;53.362;58.948;2023-02-21T05:35:57;95372.81;;;-7.32;61.82
49943;BME280;36011;53.362;58.948;2023-02-21T05:39:02;95359.34;;;-7.40;62.66
49943;BME280;36011;53.362;58.948;2023-02-21T05:42:08;95350.06;;;-7.44;63.08
49943;BME280;36011;53.362;58.948;2023-02-21T05:45:13;95356.88;;;-7.45;62.92
49943;BME280;36011;53.362;58.948;2023-02-21T05:48:17;95350.84;;;-7.42;62.48
49943;BME280;36011;53.362;58.948;2023-02-21T05:51:23;95342.28;;;-7.38;62.53
49943;BME280;36011;53.362;58.948;2023-02-21T05:54:27;95343.88;;;-7.34;62.70
49943;BME280;36011;53.362;58.948;2023-02-21T05:57:30;95326.56;;;-7.19;63.40
49943;BME280;36011;53.362;58.948;2023-02-21T06:00:33;95327.72;;;-7.33;63.49
49943;BME280;36011;53.362;58.948;2023-02-21T06:03:37;95322.28;;;-7.19;61.81
49943;BME280;36011;53.362;58.948;2023-02-21T06:06:41;95318.59;;;-7.06;63.18
49943;BME280;36011;53.362;58.948;2023-02-21T06:09:46;95315.00;;;-6.95;62.47
49943;BME280;36011;53.362;58.948;2023-02-21T06:12:49;95306.03;;;-6.76;61.32
49943;BME280;36011;53.362;58.948;2023-02-21T06:15:54;95308.91;;;-6.90;63.18
49943;BME280;36011;53.362;58.948;2023-02-21T06:18:59;95297.13;;;-6.97;62.63
49943;BME280;36011;53.362;58.948;2023-02-21T06:22:05;95282.72;;;-7.01;63.17
49943;BME280;36011;53.362;58.948;2023-02-21T06:25:10;95279.41;;;-7.05;62.98
49943;BME280;36011;53.362;58.948;2023-02-21T06:28:18;95261.69;;;-7.12;62.92
49943;BME280;36011;53.362;58.948;2023-02-21T06:31:23;95261.59;;;-7.09;63.19
49943;BME280;36011;53.362;58.948;2023-02-21T06:34:28;95251.25;;;-7.03;63.14
49943;BME280;36011;53.362;58.948;2023-02-21T06:37:34;95252.13;;;-7.04;63.41
49943;BME280;36011;53.362;58.948;2023-02-21T06:40:40;95234.31;;;-7.07;63.86
49943;BME280;36011;53.362;58.948;2023-02-21T06:43:47;95239.28;;;-7.01;64.09
49943;BME280;36011;53.362;58.948;2023-02-21T06:46:54;95233.25;;;-6.98;63.48
49943;BME280;36011;53.362;58.948;2023-02-21T06:50:04;95242.41;;;-6.90;63.12
49943;BME280;36011;53.362;58.948;2023-02-21T06:53:08;95243.78;;;-6.77;62.19
49943;BME280;36011;53.362;58.948;2023-02-21T06:56:13;95236.03;;;-6.72;62.34
49943;BME280;36011;53.362;58.948;2023-02-21T06:59:20;95223.06;;;-6.64;62.62
49943;BME280;36011;53.362;58.948;2023-02-21T07:02:26;95216.31;;;-6.68;63.46
49943;BME280;36011;53.362;58.948;2023-02-21T07:05:31;95206.91;;;-6.66;63.21
49943;BME280;36011;53.362;58.948;2023-02-21T07:08:37;95195.75;;;-6.64;63.32
49943;BME280;36011;53.362;58.948;2023-02-21T07:11:41;95194.59;;;-6.52;62.73
49943;BME280;36011;53.362;58.948;2023-02-21T07:14:47;95171.94;;;-6.33;62.73
49943;BME280;36011;53.362;58.948;2023-02-21T07:17:50;95177.56;;;-6.20;62.00
49943;BME280;36011;53.362;58.948;2023-02-21T07:20:55;95175.56;;;-6.09;62.18
49943;BME280;36011;53.362;58.948;2023-02-21T07:24:00;95166.75;;;-5.99;61.53
49943;BME280;36011;53.362;58.948;2023-02-21T07:27:05;95163.81;;;-5.87;62.08
49943;BME280;36011;53.362;58.948;2023-02-21T07:30:12;95162.00;;;-5.83;62.80
49943;BME280;36011;53.362;58.948;2023-02-21T07:33:17;95148.50;;;-5.88;63.33
49943;BME280;36011;53.362;58.948;2023-02-21T07:36:22;95137.41;;;-5.89;62.87
49943;BME280;36011;53.362;58.948;2023-02-21T07:39:25;95130.16;;;-5.74;62.10
49943;BME280;36011;53.362;58.948;2023-02-21T07:42:29;95122.56;;;-5.77;62.99
49943;BME280;36011;53.362;58.948;2023-02-21T07:45:33;95107.22;;;-5.77;62.98
49943;BME280;36011;53.362;58.948;2023-02-21T07:48:37;95104.72;;;-5.80;63.67
49943;BME280;36011;53.362;58.948;2023-02-21T07:51:42;95105.81;;;-5.89;63.11
49943;BME280;36011;53.362;58.948;2023-02-21T07:54:45;95095.16;;;-5.75;63.13
49943;BME280;36011;53.362;58.948;2023-02-21T07:57:52;95086.88;;;-5.83;63.86
49943;BME280;36011;53.362;58.948;2023-02-21T08:00:57;95074.25;;;-5.90;63.95
49943;BME280;36011;53.362;58.948;2023-02-21T08:04:00;95074.75;;;-5.77;63.47
49943;BME280;36011;53.362;58.948;2023-02-21T08:07:05;95075.00;;;-5.86;64.14
49943;BME280;36011;53.362;58.948;2023-02-21T08:10:12;95058.97;;;-5.93;64.71
49943;BME280;36011;53.362;58.948;2023-02-21T08:13:17;95058.88;;;-5.90;64.50
49943;BME280;36011;53.362;58.948;2023-02-21T08:16:22;95046.81;;;-5.86;64.04
49943;BME280;36011;53.362;58.948;2023-02-21T08:19:27;95036.44;;;-5.81;64.46
49943;BME280;36011;53.362;58.948;2023-02-21T08:22:31;95029.47;;;-5.76;64.23
49943;BME280;36011;53.362;58.948;2023-02-21T08:25:35;95021.97;;;-5.82;64.76
49943;BME280;36011;53.362;58.948;2023-02-21T08:28:38;95008.97;;;-5.76;64.21
49943;BME280;36011;53.362;58.948;2023-02-21T08:31:44;95011.34;;;-5.97;65.32
49943;BME280;36011;53.362;58.948;2023-02-21T08:34:49;95000.78;;;-6.14;65.54
49943;BME280;36011;53.362;58.948;2023-02-21T08:37:53;94993.00;;;-6.11;65.09
49943;BME280;36011;53.362;58.948;2023-02-21T08:41:04;94971.91;;;-6.19;64.70
49943;BME280;36011;53.362;58.948;2023-02-21T08:44:10;94976.31;;;-6.24;65.52
49943;BME280;36011;53.362;58.948;2023-02-21T08:47:17;94966.00;;;-6.21;65.69
49943;BME280;36011;53.362;58.948;2023-02-21T08:50:23;94959.31;;;-6.25;65.73
49943;BME280;36011;53.362;58.948;2023-02-21T08:53:27;94955.84;;;-6.24;65.64
49943;BME280;36011;53.362;58.948;2023-02-21T08:56:30;94946.06;;;-6.12;65.50
49943;BME280;36011;53.362;58.948;2023-02-21T08:59:39;94951.56;;;-6.24;66.20
49943;BME280;36011;53.362;58.948;2023-02-21T09:02:45;94937.03;;;-6.23;66.73
49943;BME280;36011;53.362;58.948;2023-02-21T09:05:50;94928.41;;;-6.19;66.64
49943;BME280;36011;53.362;58.948;2023-02-21T09:08:55;94931.19;;;-6.27;66.51
49943;BME280;36011;53.362;58.948;2023-02-21T09:11:59;94922.69;;;-6.29;66.66
49943;BME280;36011;53.362;58.948;2023-02-21T09:15:06;94910.72;;;-6.27;66.89
49943;BME280;36011;53.362;58.948;2023-02-21T09:18:11;94909.81;;;-6.26;66.20
49943;BME280;36011;53.362;58.948;2023-02-21T09:21:16;94886.88;;;-6.29;66.16
49943;BME280;36011;53.362;58.948;2023-02-21T09:24:22;94888.13;;;-6.14;65.80
49943;BME280;36011;53.362;58.948;2023-02-21T09:27:27;94890.41;;;-6.05;66.16
49943;BME280;36011;53.362;58.948;2023-02-21T09:30:41;94874.94;;;-6.02;65.45
49943;BME280;36011;53.362;58.948;2023-02-21T09:33:46;94880.19;;;-6.06;66.15
49943;BME280;36011;53.362;58.948;2023-02-21T09:36:48;94874.34;;;-6.10;66.37
49943;BME280;36011;53.362;58.948;2023-02-21T09:39:54;94871.59;;;-6.30;67.18
49943;BME280;36011;53.362;58.948;2023-02-21T09:42:59;94871.63;;;-6.32;67.96
49943;BME280;36011;53.362;58.948;2023-02-21T09:46:31;94871.09;;;-6.42;67.46
49943;BME280;36011;53.362;58.948;2023-02-21T09:49:39;94866.78;;;-6.41;68.40
49943;BME280;36011;53.362;58.948;2023-02-21T09:52:45;94866.16;;;-6.48;68.20
49943;BME280;36011;53.362;58.948;2023-02-21T09:55:52;94852.84;;;-6.59;68.41
49943;BME280;36011;53.362;58.948;2023-02-21T09:58:59;94846.81;;;-6.57;68.50
49943;BME280;36011;53.362;58.948;2023-02-21T10:02:31;94846.22;;;-6.38;68.26
49943;BME280;36011;53.362;58.948;2023-02-21T10:12:39;94823.81;;;-6.32;68.25
49943;BME280;36011;53.362;58.948;2023-02-21T10:19:33;94797.63;;;-6.40;68.18
49943;BME280;36011;53.362;58.948;2023-02-21T10:22:44;94789.50;;;-6.51;67.69
49943;BME280;36011;53.362;58.948;2023-02-21T10:25:54;94774.09;;;-6.49;67.64
49943;BME280;36011;53.362;58.948;2023-02-21T10:28:59;94773.75;;;-6.39;67.84
49943;BME280;36011;53.362;58.948;2023-02-21T10:32:04;94763.00;;;-6.23;67.62
49943;BME280;36011;53.362;58.948;2023-02-21T10:35:06;94753.34;;;-6.15;67.12
49943;BME280;36011;53.362;58.948;2023-02-21T10:38:23;94745.66;;;-6.15;67.55
49943;BME280;36011;53.362;58.948;2023-02-21T10:41:27;94745.41;;;-6.07;66.78
49943;BME280;36011;53.362;58.948;2023-02-21T10:44:34;94742.41;;;-5.95;66.97
49943;BME280;36011;53.362;58.948;2023-02-21T10:54:21;94719.78;;;-5.84;67.27
49943;BME280;36011;53.362;58.948;2023-02-21T10:57:30;94706.88;;;-5.81;67.64
49943;BME280;36011;53.362;58.948;2023-02-21T11:00:39;94716.06;;;-5.75;66.93
49943;BME280;36011;53.362;58.948;2023-02-21T11:03:52;94710.06;;;-5.74;66.65
49943;BME280;36011;53.362;58.948;2023-02-21T11:07:05;94707.94;;;-5.63;66.39
49943;BME280;36011;53.362;58.948;2023-02-21T11:10:32;94696.44;;;-5.53;66.34
49943;BME280;36011;53.362;58.948;2023-02-21T11:13:34;94700.22;;;-5.39;66.42
49943;BME280;36011;53.362;58.948;2023-02-21T11:16:39;94703.22;;;-5.28;66.95
49943;BME280;36011;53.362;58.948;2023-02-21T11:23:03;94707.63;;;-5.10;66.33
49943;BME280;36011;53.362;58.948;2023-02-21T11:26:09;94710.28;;;-4.89;66.35
49943;BME280;36011;53.362;58.948;2023-02-21T11:29:18;94699.75;;;-4.61;65.59
49943;BME280;36011;53.362;58.948;2023-02-21T11:32:28;94698.94;;;-4.41;65.44
49943;BME280;36011;53.362;58.948;2023-02-21T11:35:43;94704.69;;;-4.36;64.66
49943;BME280;36011;53.362;58.948;2023-02-21T11:42:26;94693.34;;;-4.31;65.87
49943;BME280;36011;53.362;58.948;2023-02-21T11:45:32;94690.06;;;-4.55;66.60
49943;BME280;36011;53.362;58.948;2023-02-21T11:52:48;94679.03;;;-4.57;66.73
49943;BME280;36011;53.362;58.948;2023-02-21T12:13:28;94681.22;;;-4.90;68.10
49943;BME280;36011;53.362;58.948;2023-02-21T12:35:03;94656.78;;;-5.43;68.25
49943;BME280;36011;53.362;58.948;2023-02-21T12:38:36;94651.69;;;-5.66;69.45
49943;BME280;36011;53.362;58.948;2023-02-21T12:48:57;94648.72;;;-6.01;68.71
49943;BME280;36011;53.362;58.948;2023-02-21T12:55:25;94651.72;;;-6.13;69.78
49943;BME280;36011;53.362;58.948;2023-02-21T12:58:48;94670.75;;;-6.20;69.70
49943;BME280;36011;53.362;58.948;2023-02-21T13:01:58;94673.06;;;-6.38;69.16
49943;BME280;36011;53.362;58.948;2023-02-21T13:05:17;94677.53;;;-6.19;69.80
49943;BME280;36011;53.362;58.948;2023-02-21T13:12:20;94689.53;;;-6.45;70.43
49943;BME280;36011;53.362;58.948;2023-02-21T13:15:26;94695.72;;;-6.52;71.13
49943;BME280;36011;53.362;58.948;2023-02-21T13:18:33;94696.81;;;-6.59;71.71
49943;BME280;36011;53.362;58.948;2023-02-21T13:25:11;94696.19;;;-6.92;71.98
49943;BME280;36011;53.362;58.948;2023-02-21T13:28:23;94704.59;;;-7.15;71.71
49943;BME280;36011;53.362;58.948;2023-02-21T13:31:32;94702.34;;;-7.26;71.71
49943;BME280;36011;53.362;58.948;2023-02-21T13:35:00;94705.41;;;-7.43;71.28
49943;BME280;36011;53.362;58.948;2023-02-21T13:38:09;94705.00;;;-7.59;71.62
49943;BME280;36011;53.362;58.948;2023-02-21T13:41:14;94701.91;;;-7.69;71.65
49943;BME280;36011;53.362;58.948;2023-02-21T13:44:41;94692.19;;;-7.85;71.63
49943;BME280;36011;53.362;58.948;2023-02-21T13:50:56;94703.22;;;-8.16;71.70
49943;BME280;36011;53.362;58.948;2023-02-21T13:54:11;94701.84;;;-8.28;71.63
49943;BME280;36011;53.362;58.948;2023-02-21T13:57:29;94698.66;;;-8.36;71.81
49943;BME280;36011;53.362;58.948;2023-02-21T14:03:37;94699.22;;;-8.56;72.25
49943;BME280;36011;53.362;58.948;2023-02-21T14:06:39;94699.47;;;-8.67;71.78
49943;BME280;36011;53.362;58.948;2023-02-21T14:09:54;94705.63;;;-8.74;72.21
49943;BME280;36011;53.362;58.948;2023-02-21T14:13:01;94696.34;;;-8.76;72.22
49943;BME280;36011;53.362;58.948;2023-02-21T14:19:17;94716.19;;;-8.89;72.15
49943;BME280;36011;53.362;58.948;2023-02-21T14:22:27;94721.56;;;-9.01;71.76
49943;BME280;36011;53.362;58.948;2023-02-21T14:25:33;94727.88;;;-9.16;70.89
49943;BME280;36011;53.362;58.948;2023-02-21T14:35:28;94740.09;;;-9.31;71.27
49943;BME280;36011;53.362;58.948;2023-02-21T14:38:39;94741.06;;;-9.36;71.70
49943;BME280;36011;53.362;58.948;2023-02-21T15:05:20;94735.81;;;-9.30;70.61
49943;BME280;36011;53.362;58.948;2023-02-21T15:08:24;94732.59;;;-9.38;70.42
49943;BME280;36011;53.362;58.948;2023-02-21T15:11:35;94752.22;;;-9.42;70.59
49943;BME280;36011;53.362;58.948;2023-02-21T15:14:46;94753.34;;;-9.57;70.22
49943;BME280;36011;53.362;58.948;2023-02-21T15:24:12;94757.41;;;-9.88;67.30
49943;BME280;36011;53.362;58.948;2023-02-21T15:27:14;94762.69;;;-9.98;69.32
49943;BME280;36011;53.362;58.948;2023-02-21T15:30:20;94756.91;;;-10.06;69.06
49943;BME280;36011;53.362;58.948;2023-02-21T15:33:23;94754.41;;;-10.09;69.63
49943;BME280;36011;53.362;58.948;2023-02-21T15:36:30;94760.47;;;-10.14;69.46
49943;BME280;36011;53.362;58.948;2023-02-21T15:39:35;94766.38;;;-10.14;69.46
49943;BME280;36011;53.362;58.948;2023-02-21T15:42:39;94774.06;;;-10.17;69.52
49943;BME280;36011;53.362;58.948;2023-02-21T15:45:47;94772.47;;;-10.23;68.96
49943;BME280;36011;53.362;58.948;2023-02-21T15:48:50;94770.06;;;-10.27;68.61
49943;BME280;36011;53.362;58.948;2023-02-21T15:51:53;94765.13;;;-10.36;68.13
49943;BME280;36011;53.362;58.948;2023-02-21T15:58:29;94778.03;;;-10.47;68.22
49943;BME280;36011;53.362;58.948;2023-02-21T16:01:32;94777.19;;;-10.48;68.11
49943;BME280;36011;53.362;58.948;2023-02-21T16:04:39;94765.19;;;-10.40;68.63
49943;BME280;36011;53.362;58.948;2023-02-21T16:07:42;94758.31;;;-10.34;68.37
49943;BME280;36011;53.362;58.948;2023-02-21T16:10:44;94764.97;;;-10.27;68.20
49943;BME280;36011;53.362;58.948;2023-02-21T16:13:46;94768.22;;;-10.22;67.78
49943;BME280;36011;53.362;58.948;2023-02-21T16:16:49;94769.75;;;-10.12;68.11
49943;BME280;36011;53.362;58.948;2023-02-21T16:20:08;94779.66;;;-10.00;68.30
49943;BME280;36011;53.362;58.948;2023-02-21T16:23:33;94793.16;;;-9.95;67.43
49943;BME280;36011;53.362;58.948;2023-02-21T16:26:37;94791.63;;;-10.05;66.45
49943;BME280;36011;53.362;58.948;2023-02-21T16:29:44;94795.28;;;-10.18;66.44
49943;BME280;36011;53.362;58.948;2023-02-21T16:32:47;94807.38;;;-10.29;66.20
49943;BME280;36011;53.362;58.948;2023-02-21T16:35:48;94811.81;;;-10.41;66.44
49943;BME280;36011;53.362;58.948;2023-02-21T16:38:53;94798.41;;;-10.50;66.86
49943;BME280;36011;53.362;58.948;2023-02-21T16:41:57;94799.34;;;-10.56;66.54
49943;BME280;36011;53.362;58.948;2023-02-21T16:44:58;94806.28;;;-10.64;66.33
49943;BME280;36011;53.362;58.948;2023-02-21T16:48:04;94808.00;;;-10.68;67.17
49943;BME280;36011;53.362;58.948;2023-02-21T16:51:11;94808.91;;;-10.70;67.27
49943;BME280;36011;53.362;58.948;2023-02-21T16:54:14;94812.88;;;-10.54;67.96
49943;BME280;36011;53.362;58.948;2023-02-21T16:57:15;94815.63;;;-10.66;67.44
49943;BME280;36011;53.362;58.948;2023-02-21T17:00:19;94812.31;;;-10.73;67.71
49943;BME280;36011;53.362;58.948;2023-02-21T17:03:25;94818.38;;;-10.81;67.85
49943;BME280;36011;53.362;58.948;2023-02-21T17:06:31;94838.84;;;-10.89;66.89
49943;BME280;36011;53.362;58.948;2023-02-21T17:09:34;94833.88;;;-10.97;66.69
49943;BME280;36011;53.362;58.948;2023-02-21T17:12:39;94831.47;;;-11.06;66.84
49943;BME280;36011;53.362;58.948;2023-02-21T17:15:42;94831.56;;;-11.14;66.36
49943;BME280;36011;53.362;58.948;2023-02-21T17:18:46;94830.03;;;-11.25;66.06
49943;BME280;36011;53.362;58.948;2023-02-21T17:21:50;94851.28;;;-11.33;65.71
49943;BME280;36011;53.362;58.948;2023-02-21T17:25:03;94845.50;;;-11.42;65.22
49943;BME280;36011;53.362;58.948;2023-02-21T17:28:04;94833.81;;;-11.56;65.33
49943;BME280;36011;53.362;58.948;2023-02-21T17:31:07;94846.50;;;-11.54;65.20
49943;BME280;36011;53.362;58.948;2023-02-21T17:34:13;94838.91;;;-11.59;65.27
49943;BME280;36011;53.362;58.948;2023-02-21T17:37:14;94849.94;;;-11.60;66.03
49943;BME280;36011;53.362;58.948;2023-02-21T17:40:20;94854.78;;;-11.40;66.66
49943;BME280;36011;53.362;58.948;2023-02-21T17:43:29;94869.84;;;-11.27;67.13
49943;BME280;36011;53.362;58.948;2023-02-21T17:46:30;94860.63;;;-11.35;67.73
49943;BME280;36011;53.362;58.948;2023-02-21T17:49:36;94851.09;;;-11.17;67.88
49943;BME280;36011;53.362;58.948;2023-02-21T17:52:38;94856.13;;;-11.14;68.44
49943;BME280;36011;53.362;58.948;2023-02-21T17:55:42;94868.28;;;-10.76;68.49
49943;BME280;36011;53.362;58.948;2023-02-21T17:58:43;94884.38;;;-10.75;69.11
49943;BME280;36011;53.362;58.948;2023-02-21T18:01:46;94909.81;;;-10.78;69.08
49943;BME280;36011;53.362;58.948;2023-02-21T18:04:49;94891.13;;;-10.74;69.13
49943;BME280;36011;53.362;58.948;2023-02-21T18:07:52;94903.69;;;-10.64;69.13
49943;BME280;36011;53.362;58.948;2023-02-21T18:10:55;94896.03;;;-10.62;68.36
49943;BME280;36011;53.362;58.948;2023-02-21T18:13:59;94901.06;;;-10.59;68.44
49943;BME280;36011;53.362;58.948;2023-02-21T18:17:03;94899.47;;;-10.66;67.77
49943;BME280;36011;53.362;58.948;2023-02-21T18:20:04;94898.72;;;-10.73;67.64
49943;BME280;36011;53.362;58.948;2023-02-21T18:23:11;94895.13;;;-10.58;68.77
49943;BME280;36011;53.362;58.948;2023-02-21T18:26:14;94898.25;;;-10.42;68.80
49943;BME280;36011;53.362;58.948;2023-02-21T18:29:16;94913.47;;;-10.37;69.32
49943;BME280;36011;53.362;58.948;2023-02-21T18:32:20;94916.78;;;-10.34;69.07
49943;BME280;36011;53.362;58.948;2023-02-21T18:35:28;94917.59;;;-10.32;69.21
49943;BME280;36011;53.362;58.948;2023-02-21T18:38:32;94906.91;;;-10.52;69.31
49943;BME280;36011;53.362;58.948;2023-02-21T18:41:35;94924.81;;;-10.62;69.54
49943;BME280;36011;53.362;58.948;2023-02-21T18:44:37;94929.19;;;-10.70;69.43
49943;BME280;36011;53.362;58.948;2023-02-21T18:47:43;94940.16;;;-10.66;69.82
49943;BME280;36011;53.362;58.948;2023-02-21T18:50:48;94938.34;;;-10.58;70.14
49943;BME280;36011;53.362;58.948;2023-02-21T18:53:49;94932.53;;;-10.66;70.03
49943;BME280;36011;53.362;58.948;2023-02-21T18:56:51;94933.75;;;-10.36;70.41
49943;BME280;36011;53.362;58.948;2023-02-21T18:59:52;94927.72;;;-10.30;70.30
49943;BME280;36011;53.362;58.948;2023-02-21T19:02:54;94936.50;;;-10.48;70.47